• Join FlightAware (Why Join?)
  • Login
  • US Flag 
05:59AM EDT


 

Airport Tracker/Info


-or-


 

Live Flight TrackerFlight Track Log ✈ TYR850 ✈ 24-Sep-2013 ✈ LATI / TIA - LOWW / VIE

Flight Track Log - Related Links

Times and Time Zones

All times are in EDT time to prevent confusion due to time zone crossing. See the TYR850 flight status page for this flight to view local times or setup timezone preferences in your user account.

Time Position Orientation Groundspeed Altitude Reporting Facility
EDT Latitude Longitude Course Direction KTS MPH feet Rate Location/Type
10:37PM 42.4367 19.2868 343° North  Level Estimated
10:38PM 42.5218 19.2501 342° North  Level Estimated
10:39PM 42.6069 19.2132 342° North  Level Estimated
10:40PM 42.6920 19.1762 342° North  Level Estimated
10:41PM 42.7770 19.1391 342° North  Level Estimated
10:42PM 42.8620 19.1019 342° North  Level Estimated
10:43PM 42.9471 19.0647 342° North  Level Estimated
10:44PM 43.0321 19.0273 342° North  Level Estimated
10:45PM 43.1171 18.9898 342° North  Level Estimated
10:46PM 43.2021 18.9522 342° North  Level Estimated
10:47PM 43.2871 18.9145 342° North  Level Estimated
10:48PM 43.3720 18.8767 342° North  Level Estimated
10:49PM 43.4570 18.8388 342° North  Level Estimated
10:50PM 43.5419 18.8007 342° North  Level Estimated
10:51PM 43.6269 18.7626 342° North  Level Estimated
10:52PM 43.7118 18.7244 342° North  Level Estimated
10:53PM 43.7967 18.6860 342° North  Level Estimated
10:54PM 43.8816 18.6476 342° North  Level Estimated
10:55PM 43.9665 18.6090 342° North  Level Estimated
10:56PM 44.0513 18.5704 342° North  Level Estimated
10:57PM 44.1362 18.5316 342° North  Level Estimated
10:58PM 44.2210 18.4927 342° North  Level Estimated
10:59PM 44.3059 18.4537 342° North  Level Estimated
11:00PM 44.3907 18.4146 342° North  Level Estimated
11:01PM 44.4755 18.3753 342° North  Level Estimated
11:02PM 44.5603 18.3360 342° North  Level Estimated
11:03PM 44.6450 18.2965 342° North  Level Estimated
11:04PM 44.7298 18.2569 342° North  Level Estimated
11:05PM 44.8145 18.2172 342° North  Level Estimated
11:06PM 44.8993 18.1774 342° North  Level Estimated
11:07PM 44.9840 18.1375 342° North  Level Estimated
11:08PM 45.0687 18.0975 342° North  Level Estimated
11:09PM 45.1534 18.0573 342° North  Level Estimated
11:10PM 45.2381 18.0170 341° North  Level Estimated
11:11PM 45.3227 17.9766 341° North  Level Estimated
11:12PM 45.4074 17.9361 341° North  Level Estimated
11:13PM 45.4920 17.8954 341° North  Level Estimated
11:14PM 45.5766 17.8546 341° North  Level Estimated
11:15PM 45.6612 17.8137 341° North  Level Estimated
11:16PM 45.7458 17.7727 341° North  Level Estimated
11:17PM 45.8304 17.7316 341° North  Level Estimated
11:18PM 45.9150 17.6903 341° North  Level Estimated
11:19PM 45.9995 17.6489 341° North  Level Estimated
11:20PM 46.0840 17.6074 341° North  Level Estimated
11:21PM 46.1685 17.5658 341° North  Level Estimated
11:22PM 46.2531 17.5240 341° North  Level Estimated
11:23PM 46.3375 17.4821 341° North  Level Estimated
11:24PM 46.4220 17.4401 341° North  Level Estimated
11:25PM 46.5065 17.3979 341° North  Level Estimated
11:26PM 46.5909 17.3556 341° North  Level Estimated
11:27PM 46.6753 17.3132 341° North  Level Estimated
11:28PM 46.7597 17.2706 341° North  Level Estimated
11:29PM 46.8441 17.2279 341° North  Level Estimated
11:30PM 46.9285 17.1851 341° North  Level Estimated
11:31PM 47.0129 17.1421 341° North  Level Estimated
11:32PM 47.0972 17.0990 341° North  Level Estimated
11:33PM 47.1815 17.0558 341° North  Level Estimated
11:34PM 47.2658 17.0124 341° North  Level Estimated
11:35PM 47.3501 16.9689 341° North  Level Estimated
11:36PM 47.4344 16.9252 341° North  Level Estimated
11:37PM 47.5187 16.8815 341° North  Level Estimated
11:38PM 47.6029 16.8375 341° North  Level Estimated
11:39PM 47.6871 16.7935 341° North  Level Estimated
11:40PM 47.7713 16.7492 341° North  Level Estimated
11:41PM 47.8555 16.7049 341° North  Level Estimated
11:42PM 47.9397 16.6604 340° North  Level Estimated
11:43PM 48.0239 16.6157 340° North  Level Estimated
11:44PM 48.1080 16.5709 340° North  Level Estimated
11:45PM 48.1103 16.5697 340° North  Level Estimated
11:46PM 48.1103 16.5697 146° Southeast  Level Estimated
11:47PM 48.1103 16.5697 146° Southeast  Level Estimated
11:48PM 48.1103 16.5697 146° Southeast  Level Estimated
11:49PM 48.1103 16.5697 146° Southeast  Level Estimated
11:50PM 48.1103 16.5697 146° Southeast  Level Estimated
11:51PM 48.1103 16.5697 146° Southeast  Level Estimated
11:52PM 48.1103 16.5697 146° Southeast  Level Estimated
11:53PM 48.1103 16.5697 146° Southeast  Level Estimated
11:54PM 48.1103 16.5697 146° Southeast  Level Estimated
11:55PM 48.1103 16.5697 146° Southeast  Level Estimated